createdAt,value
2019-05-12T00:02:33.611Z,5.00
2019-05-12T00:05:38.719Z,5.00
2019-05-12T00:08:43.890Z,5.47
2019-05-12T00:11:50.030Z,5.10
2019-05-12T00:14:55.142Z,5.40
2019-05-12T00:18:00.375Z,5.67
2019-05-12T00:21:05.503Z,5.80
2019-05-12T00:24:13.919Z,6.30
2019-05-12T00:27:21.022Z,6.53
2019-05-12T00:30:42.334Z,6.67
2019-05-12T00:33:48.069Z,6.27
2019-05-12T00:36:53.439Z,7.03
2019-05-12T00:39:58.576Z,6.37
2019-05-12T00:43:03.700Z,7.37
2019-05-12T00:46:08.893Z,7.30
2019-05-12T00:49:15.392Z,7.87
2019-05-12T00:52:20.599Z,7.20
2019-05-12T00:55:28.912Z,7.83
2019-05-12T00:58:33.785Z,7.40
2019-05-12T01:01:38.931Z,7.27
2019-05-12T01:04:44.208Z,7.60
2019-05-12T01:07:51.227Z,7.70
2019-05-12T01:10:58.303Z,7.90
2019-05-12T01:14:03.079Z,7.07
2019-05-12T01:17:08.535Z,8.17
2019-05-12T01:20:13.940Z,7.50
2019-05-12T01:23:23.060Z,8.27
2019-05-12T01:26:28.327Z,7.17
2019-05-12T01:29:32.841Z,6.30
2019-05-12T01:32:40.076Z,6.47
2019-05-12T01:35:45.251Z,6.53
2019-05-12T01:38:50.381Z,6.30
2019-05-12T01:41:55.555Z,6.60
2019-05-12T01:45:00.743Z,6.60
2019-05-12T01:48:08.365Z,5.77
2019-05-12T01:51:12.896Z,6.27
2019-05-12T01:54:18.912Z,6.93
2019-05-12T01:57:24.120Z,6.40
2019-05-12T02:00:29.290Z,6.83
2019-05-12T02:03:34.492Z,7.47
2019-05-12T02:06:39.635Z,7.47
2019-05-12T02:09:48.072Z,8.20
2019-05-12T02:12:53.466Z,7.30
2019-05-12T02:15:58.590Z,6.83
2019-05-12T02:19:03.750Z,6.70
2019-05-12T02:22:08.855Z,7.43
2019-05-12T02:25:14.653Z,6.77
2019-05-12T02:28:19.763Z,6.63
2019-05-12T02:31:25.008Z,6.47
2019-05-12T02:34:30.309Z,6.27
2019-05-12T02:37:36.019Z,6.67
2019-05-12T02:40:41.348Z,6.47
2019-05-12T02:43:46.565Z,6.33
2019-05-12T02:46:51.686Z,6.57
2019-05-12T02:49:56.933Z,6.07
2019-05-12T02:53:04.895Z,6.47
2019-05-12T02:56:11.501Z,5.73
2019-05-12T02:59:18.698Z,5.93
2019-05-12T03:02:25.327Z,6.27
2019-05-12T03:05:30.793Z,6.60
2019-05-12T03:08:40.536Z,5.63
2019-05-12T03:11:46.619Z,6.20
2019-05-12T03:14:54.250Z,6.40
2019-05-12T03:17:58.738Z,6.70
2019-05-12T03:21:05.530Z,6.47
2019-05-12T03:24:10.731Z,7.67
2019-05-12T03:27:17.790Z,7.03
2019-05-12T03:30:28.452Z,6.33
2019-05-12T03:33:35.957Z,6.97
2019-05-12T03:36:42.370Z,6.80
2019-05-12T03:39:44.860Z,6.77
2019-05-12T03:42:50.064Z,6.10
2019-05-12T03:45:55.948Z,5.93
2019-05-12T03:49:04.913Z,6.10
2019-05-12T03:52:08.121Z,6.00
2019-05-12T03:55:30.384Z,5.60
2019-05-12T03:58:20.512Z,5.57
2019-05-12T04:01:25.977Z,5.40
2019-05-12T04:04:34.100Z,5.80
2019-05-12T04:07:38.020Z,5.13
2019-05-12T04:10:45.415Z,5.30
2019-05-12T04:13:49.979Z,4.80
2019-05-12T04:16:55.401Z,5.47
2019-05-12T04:20:00.685Z,5.73
2019-05-12T04:23:07.018Z,4.53
2019-05-12T04:26:16.743Z,4.43
2019-05-12T04:29:19.071Z,4.73
2019-05-12T04:32:25.153Z,4.27
2019-05-12T04:35:30.499Z,5.20
2019-05-12T04:38:35.759Z,4.13
2019-05-12T04:41:44.724Z,3.90
2019-05-12T04:44:48.870Z,4.27
2019-05-12T04:47:55.260Z,3.93
2019-05-12T04:51:00.616Z,3.97
2019-05-12T04:54:06.460Z,3.70
2019-05-12T04:57:14.814Z,3.80
2019-05-12T05:00:18.706Z,3.57
2019-05-12T05:03:24.694Z,3.00
2019-05-12T05:06:30.130Z,3.00
2019-05-12T05:09:35.287Z,3.27
2019-05-12T05:12:40.489Z,3.63
2019-05-12T05:15:45.668Z,3.20
2019-05-12T05:18:50.809Z,3.40
2019-05-12T05:21:56.064Z,3.60
2019-05-12T05:25:01.244Z,3.20
2019-05-12T05:28:06.516Z,3.00
2019-05-12T05:31:13.884Z,2.93
2019-05-12T05:34:18.548Z,3.20
2019-05-12T05:37:23.993Z,2.53
2019-05-12T05:40:30.404Z,2.73
2019-05-12T05:43:35.637Z,2.97
2019-05-12T05:46:48.151Z,3.17
2019-05-12T05:49:49.438Z,2.93
2019-05-12T05:52:56.062Z,3.10
2019-05-12T05:56:01.263Z,2.80
2019-05-12T05:59:06.424Z,2.97
2019-05-12T06:02:13.770Z,2.80
2019-05-12T06:05:19.976Z,3.07
2019-05-12T06:08:25.444Z,2.80
2019-05-12T06:11:30.594Z,3.50
2019-05-12T06:14:35.731Z,3.17
2019-05-12T06:17:40.950Z,3.27
2019-05-12T06:20:46.122Z,3.10
2019-05-12T06:23:51.371Z,3.57
2019-05-12T06:27:00.636Z,3.30
2019-05-12T06:30:06.178Z,3.07
2019-05-12T06:33:10.419Z,2.87
2019-05-12T06:36:22.284Z,3.57
2019-05-12T06:39:23.589Z,3.10
2019-05-12T06:42:28.870Z,2.73
2019-05-12T06:45:41.879Z,3.47
2019-05-12T06:48:43.286Z,2.87
2019-05-12T06:51:53.630Z,2.77
2019-05-12T06:54:56.770Z,2.47
2019-05-12T06:58:04.457Z,3.30
2019-05-12T07:01:11.048Z,2.90
2019-05-12T07:04:15.857Z,3.03
2019-05-12T07:07:25.599Z,3.17
2019-05-12T07:10:43.091Z,3.40
2019-05-12T07:13:38.937Z,3.23
2019-05-12T07:16:53.302Z,3.63
2019-05-12T07:20:03.858Z,3.57
2019-05-12T07:23:08.708Z,3.50
2019-05-12T07:26:19.206Z,4.13
2019-05-12T07:29:20.827Z,4.17
2019-05-12T07:32:26.088Z,4.20
2019-05-12T07:35:33.761Z,4.00
2019-05-12T07:38:43.279Z,4.23
2019-05-12T07:41:52.172Z,3.70
2019-05-12T07:44:59.438Z,4.37
2019-05-12T07:48:08.725Z,4.40
2019-05-12T07:51:13.638Z,4.37
2019-05-12T07:54:18.366Z,4.07
2019-05-12T07:57:24.194Z,3.77
2019-05-12T08:00:29.512Z,3.93
2019-05-12T08:03:34.899Z,4.53
2019-05-12T08:06:41.542Z,3.93
2019-05-12T08:09:47.040Z,4.40
2019-05-12T08:12:59.284Z,3.87
2019-05-12T08:15:59.115Z,3.93
2019-05-12T08:19:04.380Z,3.57
2019-05-12T08:22:09.524Z,3.33
2019-05-12T08:25:18.802Z,3.77
2019-05-12T08:28:28.129Z,3.73
2019-05-12T08:31:32.477Z,3.20
2019-05-12T08:34:35.633Z,3.60
2019-05-12T08:37:40.826Z,2.70
2019-05-12T08:40:50.975Z,2.87
2019-05-12T08:43:57.964Z,3.43
2019-05-12T08:47:00.117Z,3.23
2019-05-12T08:50:05.375Z,2.83
2019-05-12T08:53:12.240Z,2.97
2019-05-12T08:56:19.411Z,2.77
2019-05-12T08:59:27.311Z,2.77
2019-05-12T09:02:31.290Z,2.67
2019-05-12T09:05:38.371Z,2.30
2019-05-12T09:08:49.210Z,2.60
2019-05-12T09:11:54.059Z,2.40
2019-05-12T09:14:58.804Z,3.00
2019-05-12T09:18:04.815Z,1.90
2019-05-12T09:21:10.247Z,3.00
2019-05-12T09:24:21.722Z,2.30
2019-05-12T09:27:24.144Z,2.17
2019-05-12T09:30:33.521Z,1.80
2019-05-12T09:33:38.312Z,1.70
2019-05-12T09:36:44.256Z,1.77
2019-05-12T09:39:51.850Z,2.20
2019-05-12T09:43:00.221Z,1.83
2019-05-12T09:46:05.544Z,1.50
2019-05-12T09:49:10.678Z,1.97
2019-05-12T09:52:22.736Z,1.57
2019-05-12T09:55:24.811Z,1.77
2019-05-12T09:58:29.698Z,1.90
2019-05-12T10:01:39.306Z,1.83
2019-05-12T10:04:43.670Z,1.63
2019-05-12T10:07:48.599Z,1.60
2019-05-12T10:10:53.860Z,1.50
2019-05-12T10:14:00.446Z,1.23
2019-05-12T10:17:05.988Z,1.20
2019-05-12T10:20:13.689Z,1.63
2019-05-12T10:23:21.557Z,1.40
2019-05-12T10:26:25.360Z,1.30
2019-05-12T10:29:32.145Z,1.40
2019-05-12T10:32:37.725Z,1.37
2019-05-12T10:35:43.891Z,0.90
2019-05-12T10:38:49.333Z,1.13
2019-05-12T10:41:55.753Z,0.87
2019-05-12T10:45:01.060Z,1.03
2019-05-12T10:48:06.434Z,1.30
2019-05-12T10:51:11.618Z,1.00
2019-05-12T10:54:16.847Z,1.43
2019-05-12T10:57:21.955Z,1.20
2019-05-12T11:00:27.213Z,1.30
2019-05-12T11:03:33.769Z,1.10
2019-05-12T11:06:39.798Z,1.10
2019-05-12T11:09:45.997Z,1.27
2019-05-12T11:12:51.144Z,1.00
2019-05-12T11:15:56.318Z,0.90
2019-05-12T11:19:06.498Z,1.27
2019-05-12T11:22:09.664Z,0.90
2019-05-12T11:25:14.878Z,1.10
2019-05-12T11:28:20.014Z,1.10
2019-05-12T11:31:25.228Z,1.40
2019-05-12T11:34:30.371Z,1.00
2019-05-12T11:37:35.604Z,0.97
2019-05-12T11:40:40.725Z,1.23
2019-05-12T11:43:45.947Z,1.27
2019-05-12T11:46:51.109Z,1.17
2019-05-12T11:49:58.561Z,1.00
2019-05-12T11:53:04.161Z,0.80
2019-05-12T11:56:09.599Z,0.90
2019-05-12T11:59:14.782Z,0.97
2019-05-12T12:02:26.301Z,0.93
2019-05-12T12:05:27.281Z,0.90
2019-05-12T12:08:36.989Z,1.20
2019-05-12T12:11:39.411Z,1.00
2019-05-12T12:14:46.201Z,0.90
2019-05-12T12:17:53.453Z,1.10
2019-05-12T12:21:04.237Z,1.03
2019-05-12T12:24:05.241Z,1.00
2019-05-12T12:27:10.440Z,1.17
2019-05-12T12:30:19.681Z,0.93
2019-05-12T12:33:23.456Z,0.90
2019-05-12T12:36:28.747Z,0.80
2019-05-12T12:39:33.885Z,0.90
2019-05-12T12:42:44.128Z,1.07
2019-05-12T12:46:00.312Z,0.93
2019-05-12T12:49:10.267Z,0.73
2019-05-12T12:52:13.811Z,0.90
2019-05-12T12:55:19.183Z,1.03
2019-05-12T12:58:27.050Z,1.20
2019-05-12T13:01:33.486Z,0.90
2019-05-12T13:04:39.690Z,0.90
2019-05-12T13:07:44.863Z,0.90
2019-05-12T13:10:53.558Z,1.07
2019-05-12T13:13:57.647Z,0.80
2019-05-12T13:17:04.234Z,0.70
2019-05-12T13:20:10.372Z,0.80
2019-05-12T13:23:15.788Z,1.00
2019-05-12T13:26:20.880Z,0.97
2019-05-12T13:29:34.554Z,0.93
2019-05-12T13:32:37.797Z,1.00
2019-05-12T13:35:39.760Z,0.80
2019-05-12T13:38:44.926Z,1.00
2019-05-12T13:41:55.163Z,0.90
2019-05-12T13:44:57.139Z,0.97
2019-05-12T13:48:03.910Z,1.10
2019-05-12T13:51:13.232Z,1.00
2019-05-12T13:54:20.103Z,0.80
2019-05-12T13:57:23.682Z,0.97
2019-05-12T14:00:28.997Z,0.80
2019-05-12T14:03:34.308Z,0.87
2019-05-12T14:06:39.607Z,1.13
2019-05-12T14:09:44.746Z,1.00
2019-05-12T14:12:50.016Z,0.90
2019-05-12T14:15:55.175Z,0.90
2019-05-12T14:19:00.586Z,0.80
2019-05-12T14:22:06.891Z,0.70
2019-05-12T14:25:14.885Z,0.83
2019-05-12T14:28:20.317Z,0.93
2019-05-12T14:31:30.299Z,0.90
2019-05-12T14:34:33.976Z,0.80
2019-05-12T14:37:40.314Z,0.57
2019-05-12T14:40:49.656Z,0.80
2019-05-12T14:44:03.416Z,1.27
2019-05-12T14:47:28.530Z,0.87
2019-05-12T14:50:34.079Z,0.90
2019-05-12T14:53:39.839Z,0.90
2019-05-12T14:56:53.089Z,0.77
2019-05-12T14:59:53.342Z,0.63
2019-05-12T15:02:59.172Z,1.00
2019-05-12T15:06:07.668Z,1.20
2019-05-12T15:09:19.524Z,0.73
2019-05-12T15:12:19.552Z,0.90
2019-05-12T15:15:24.726Z,1.10
2019-05-12T15:18:29.977Z,1.00
2019-05-12T15:21:35.335Z,0.90
2019-05-12T15:24:40.591Z,0.83
2019-05-12T15:27:48.363Z,1.07
2019-05-12T15:30:54.194Z,1.00
2019-05-12T15:33:59.682Z,0.87
2019-05-12T15:37:04.847Z,0.60
2019-05-12T15:40:10.063Z,0.60
2019-05-12T15:43:15.312Z,1.00
2019-05-12T15:46:20.724Z,0.77
2019-05-12T15:49:26.336Z,0.90
2019-05-12T15:52:38.350Z,0.60
2019-05-12T15:55:38.633Z,0.90
2019-05-12T15:58:45.589Z,0.83
2019-05-12T16:01:53.151Z,1.00
2019-05-12T16:04:57.679Z,0.80
2019-05-12T16:08:03.604Z,0.70
2019-05-12T16:11:09.082Z,0.80
2019-05-12T16:14:14.457Z,0.90
2019-05-12T16:17:25.420Z,0.60
2019-05-12T16:20:26.857Z,1.10
2019-05-12T16:23:34.127Z,0.80
2019-05-12T16:26:45.273Z,0.77
2019-05-12T16:29:49.929Z,1.00
2019-05-12T16:32:55.034Z,1.00
2019-05-12T16:36:09.386Z,0.70
2019-05-12T16:39:08.870Z,0.80
2019-05-12T16:42:14.260Z,0.90
2019-05-12T16:45:20.166Z,0.93
2019-05-12T16:48:33.119Z,0.90
2019-05-12T16:51:33.315Z,0.63
2019-05-12T16:54:38.785Z,0.90
2019-05-12T16:57:51.645Z,0.90
2019-05-12T17:00:53.383Z,1.07
2019-05-12T17:03:58.320Z,0.90
2019-05-12T17:07:03.571Z,1.03
2019-05-12T17:10:16.239Z,0.67
2019-05-12T17:13:16.313Z,0.80
2019-05-12T17:16:21.489Z,1.17
2019-05-12T17:19:26.644Z,1.40
2019-05-12T17:22:31.933Z,1.13
2019-05-12T17:25:37.202Z,0.97
2019-05-12T17:28:43.608Z,0.80
2019-05-12T17:31:48.857Z,0.80
2019-05-12T17:34:54.065Z,1.10
2019-05-12T17:38:00.379Z,0.80
2019-05-12T17:41:05.712Z,0.80
2019-05-12T17:44:10.915Z,0.77
2019-05-12T17:47:21.566Z,0.70
2019-05-12T17:50:24.206Z,0.80
2019-05-12T17:53:30.637Z,0.80
2019-05-12T17:56:38.633Z,0.73
2019-05-12T17:59:44.718Z,0.97
2019-05-12T18:02:56.197Z,0.70
2019-05-12T18:05:57.000Z,0.83
2019-05-12T18:09:04.003Z,0.90
2019-05-12T18:12:09.222Z,0.67
2019-05-12T18:15:15.459Z,0.90
2019-05-12T18:18:24.124Z,0.73
2019-05-12T18:21:30.979Z,0.70
2019-05-12T18:24:34.989Z,0.70
2019-05-12T18:27:47.943Z,0.80
2019-05-12T18:30:47.101Z,0.70
2019-05-12T18:33:56.699Z,0.97
2019-05-12T18:36:59.941Z,0.87
2019-05-12T18:40:06.185Z,1.00
2019-05-12T18:43:11.418Z,0.80
2019-05-12T18:46:16.703Z,0.80
2019-05-12T18:49:23.814Z,0.60
2019-05-12T18:52:39.327Z,0.70
2019-05-12T18:55:40.377Z,0.70
2019-05-12T18:58:45.260Z,0.60
2019-05-12T19:01:50.449Z,0.87
2019-05-12T19:04:55.605Z,0.70
2019-05-12T19:08:00.762Z,0.87
2019-05-12T19:11:18.885Z,0.67
2019-05-12T19:14:13.577Z,0.80
2019-05-12T19:17:18.866Z,1.17
2019-05-12T19:20:24.300Z,1.70
2019-05-12T19:23:34.965Z,2.00
2019-05-12T19:26:38.559Z,1.87
2019-05-12T19:29:48.290Z,1.90
2019-05-12T19:32:52.506Z,3.33
2019-05-12T19:36:04.072Z,1.87
2019-05-12T19:39:06.487Z,3.10
2019-05-12T19:42:18.652Z,1.33
2019-05-12T19:45:21.645Z,0.90
2019-05-12T19:48:27.595Z,0.90
2019-05-12T19:51:34.558Z,1.00
2019-05-12T19:54:39.924Z,1.03
2019-05-12T19:57:45.191Z,0.90
2019-05-12T20:00:50.466Z,3.40
2019-05-12T20:03:57.991Z,1.70
2019-05-12T20:07:03.680Z,4.17
2019-05-12T20:10:12.613Z,2.00
2019-05-12T20:13:16.062Z,1.97
2019-05-12T20:16:24.523Z,1.23
2019-05-12T20:19:28.162Z,2.33
2019-05-12T20:22:34.369Z,2.30
2019-05-12T20:25:39.545Z,1.60
2019-05-12T20:28:50.467Z,1.20
2019-05-12T20:31:53.710Z,1.53
2019-05-12T20:34:58.567Z,1.97
2019-05-12T20:38:04.240Z,2.40
2019-05-12T20:41:10.868Z,1.73
2019-05-12T20:44:19.938Z,3.20
2019-05-12T20:47:23.498Z,2.13
2019-05-12T20:50:32.562Z,2.27
2019-05-12T20:53:36.729Z,2.17
2019-05-12T20:56:43.479Z,1.43
2019-05-12T20:59:48.875Z,1.93
2019-05-12T21:02:54.083Z,1.40
2019-05-12T21:06:01.576Z,1.83
2019-05-12T21:09:07.321Z,1.60
2019-05-12T21:12:13.842Z,1.60
2019-05-12T21:15:20.712Z,1.67
2019-05-12T21:18:26.087Z,1.70
2019-05-12T21:21:34.264Z,2.00
2019-05-12T21:24:39.463Z,1.80
2019-05-12T21:27:47.623Z,2.97
2019-05-12T21:30:53.144Z,2.17
2019-05-12T21:33:58.433Z,2.10
2019-05-12T21:37:04.638Z,2.20
2019-05-12T21:40:10.766Z,2.80
2019-05-12T21:43:15.926Z,2.83
2019-05-12T21:46:21.162Z,1.60
2019-05-12T21:49:27.373Z,1.23
2019-05-12T21:52:34.958Z,1.57
2019-05-12T21:55:39.501Z,1.20
2019-05-12T21:58:53.846Z,1.50
2019-05-12T22:01:53.419Z,1.30
2019-05-12T22:04:58.653Z,1.43
2019-05-12T22:08:06.548Z,1.53
2019-05-12T22:11:11.976Z,1.40
2019-05-12T22:14:17.147Z,1.10
2019-05-12T22:17:23.969Z,1.20
2019-05-12T22:20:32.570Z,1.13
2019-05-12T22:23:44.582Z,1.10
2019-05-12T22:26:46.663Z,1.00
2019-05-12T22:29:51.542Z,0.80
2019-05-12T22:32:59.387Z,1.10
2019-05-12T22:36:13.841Z,1.00
2019-05-12T22:39:10.441Z,1.10
2019-05-12T22:42:20.252Z,1.10
2019-05-12T22:45:24.016Z,1.27
2019-05-12T22:48:35.411Z,1.40
2019-05-12T22:51:36.230Z,1.60
2019-05-12T22:54:46.837Z,1.90
2019-05-12T22:57:48.245Z,1.43
2019-05-12T23:01:00.880Z,1.87
2019-05-12T23:04:03.842Z,1.60
2019-05-12T23:07:09.149Z,2.00
2019-05-12T23:10:14.456Z,1.50
2019-05-12T23:13:19.637Z,1.53
2019-05-12T23:16:29.100Z,2.33
2019-05-12T23:19:33.890Z,1.93
2019-05-12T23:22:38.478Z,1.50
2019-05-12T23:25:44.108Z,2.00
2019-05-12T23:28:50.319Z,2.00
2019-05-12T23:32:00.766Z,2.03
2019-05-12T23:35:03.831Z,2.03
2019-05-12T23:38:10.383Z,2.37
2019-05-12T23:41:15.924Z,2.33
2019-05-12T23:44:21.123Z,2.40
2019-05-12T23:47:26.245Z,1.90
2019-05-12T23:50:31.421Z,2.07
2019-05-12T23:53:36.572Z,2.23
2019-05-12T23:56:43.886Z,1.87
2019-05-12T23:59:48.650Z,1.70
